createdAt,value
2022-09-21T00:01:37.528Z,21.94
2022-09-21T00:04:04.164Z,21.95
2022-09-21T00:06:31.888Z,21.95
2022-09-21T00:08:58.551Z,21.95
2022-09-21T00:11:28.020Z,21.95
2022-09-21T00:13:55.432Z,21.96
2022-09-21T00:16:22.014Z,21.95
2022-09-21T00:18:48.586Z,21.95
2022-09-21T00:21:15.993Z,21.94
2022-09-21T00:23:43.085Z,21.95
2022-09-21T00:26:11.186Z,21.95
2022-09-21T00:28:38.249Z,21.93
2022-09-21T00:31:06.835Z,21.94
2022-09-21T00:33:33.875Z,21.90
2022-09-21T00:36:07.494Z,21.86
2022-09-21T00:38:34.331Z,21.85
2022-09-21T00:41:00.689Z,21.83
2022-09-21T00:43:27.290Z,21.86
2022-09-21T00:45:57.155Z,21.88
2022-09-21T00:48:23.715Z,21.91
2022-09-21T00:50:53.775Z,21.91
2022-09-21T00:53:20.426Z,21.90
2022-09-21T00:55:50.001Z,21.91
2022-09-21T00:58:19.585Z,21.91
2022-09-21T01:00:46.026Z,21.91
2022-09-21T01:03:12.935Z,21.91
2022-09-21T01:05:39.301Z,21.90
2022-09-21T01:08:07.794Z,21.89
2022-09-21T01:10:42.127Z,21.89
2022-09-21T01:13:21.504Z,21.88
2022-09-21T01:15:47.823Z,21.89
2022-09-21T01:18:24.772Z,21.90
2022-09-21T01:20:54.222Z,21.87
2022-09-21T01:23:23.531Z,21.88
2022-09-21T01:25:49.898Z,21.86
2022-09-21T01:28:20.323Z,21.85
2022-09-21T01:30:49.459Z,21.83
2022-09-21T01:33:20.839Z,21.83
2022-09-21T01:35:49.062Z,21.82
2022-09-21T01:38:26.888Z,21.82
2022-09-21T01:40:56.902Z,21.82
2022-09-21T01:43:29.665Z,21.86
2022-09-21T01:46:02.072Z,21.87
2022-09-21T01:48:31.503Z,21.89
2022-09-21T01:50:59.180Z,21.88
2022-09-21T01:53:32.895Z,21.90
2022-09-21T01:56:22.619Z,21.91
2022-09-21T01:59:01.334Z,21.92
2022-09-21T02:01:30.544Z,21.90
2022-09-21T02:04:03.183Z,21.91
2022-09-21T02:06:30.418Z,21.90
2022-09-21T02:08:57.672Z,21.89
2022-09-21T02:11:24.132Z,21.90
2022-09-21T02:13:52.270Z,21.87
2022-09-21T02:16:36.117Z,21.87
2022-09-21T02:19:07.590Z,21.86
2022-09-21T02:21:42.154Z,21.86
2022-09-21T02:24:21.932Z,21.87
2022-09-21T02:27:06.738Z,21.85
2022-09-21T02:29:51.921Z,21.85
2022-09-21T02:32:24.472Z,21.84
2022-09-21T02:34:59.290Z,21.82
2022-09-21T02:37:34.050Z,21.80
2022-09-21T02:40:09.930Z,21.82
2022-09-21T02:42:39.151Z,21.83
2022-09-21T02:45:09.648Z,21.78
2022-09-21T02:47:38.898Z,21.76
2022-09-21T02:50:11.976Z,21.76
2022-09-21T02:52:40.982Z,21.76
2022-09-21T02:55:07.760Z,21.77
2022-09-21T02:57:35.126Z,21.77
2022-09-21T03:00:01.660Z,21.77
2022-09-21T03:02:41.465Z,21.79
2022-09-21T03:05:08.645Z,21.80
2022-09-21T03:07:35.023Z,21.81
2022-09-21T03:10:01.915Z,21.81
2022-09-21T03:12:28.299Z,21.80
2022-09-21T03:14:56.022Z,21.79
2022-09-21T03:17:22.492Z,21.80
2022-09-21T03:19:49.110Z,21.83
2022-09-21T03:22:17.090Z,21.82
2022-09-21T03:24:46.428Z,21.81
2022-09-21T03:27:16.814Z,21.80
2022-09-21T03:29:43.377Z,21.79
2022-09-21T03:32:09.780Z,21.81
2022-09-21T03:34:36.298Z,21.80
2022-09-21T03:37:03.612Z,21.82
2022-09-21T03:39:30.063Z,21.85
2022-09-21T03:41:56.967Z,21.86
2022-09-21T03:44:24.263Z,21.86
2022-09-21T03:46:50.723Z,21.88
2022-09-21T03:49:17.707Z,21.87
2022-09-21T03:51:44.340Z,21.88
2022-09-21T03:54:10.909Z,21.88
2022-09-21T03:56:37.501Z,21.89
2022-09-21T03:59:03.912Z,21.87
2022-09-21T04:01:30.348Z,21.84
2022-09-21T04:03:56.844Z,21.82
2022-09-21T04:06:23.172Z,21.84
2022-09-21T04:08:50.110Z,21.85
2022-09-21T04:11:18.539Z,21.86
2022-09-21T04:13:49.170Z,21.85
2022-09-21T04:16:15.827Z,21.84
2022-09-21T04:18:42.169Z,21.86
2022-09-21T04:21:08.602Z,21.86
2022-09-21T04:23:35.678Z,21.88
2022-09-21T04:26:02.189Z,21.89
2022-09-21T04:28:29.293Z,21.88
2022-09-21T04:30:55.769Z,21.86
2022-09-21T04:33:23.866Z,21.86
2022-09-21T04:35:56.288Z,21.87
2022-09-21T04:38:22.670Z,21.87
2022-09-21T04:40:58.394Z,21.86
2022-09-21T04:43:25.162Z,21.84
2022-09-21T04:45:51.677Z,21.80
2022-09-21T04:48:18.148Z,21.77
2022-09-21T04:50:48.154Z,21.79
2022-09-21T04:53:14.562Z,21.80
2022-09-21T04:55:40.967Z,21.79
2022-09-21T04:58:07.568Z,21.77
2022-09-21T05:00:33.940Z,21.77
2022-09-21T05:03:00.391Z,21.77
2022-09-21T05:05:26.722Z,21.81
2022-09-21T05:07:53.150Z,21.84
2022-09-21T05:10:19.520Z,21.87
2022-09-21T05:12:46.475Z,21.89
2022-09-21T05:15:13.039Z,21.89
2022-09-21T05:17:40.932Z,21.91
2022-09-21T05:20:07.629Z,21.88
2022-09-21T05:22:34.206Z,21.88
2022-09-21T05:25:00.804Z,21.86
2022-09-21T05:27:27.277Z,21.87
2022-09-21T05:29:53.920Z,21.85
2022-09-21T05:32:24.321Z,21.85
2022-09-21T05:34:57.168Z,21.85
2022-09-21T05:37:23.519Z,21.86
2022-09-21T05:39:50.075Z,21.84
2022-09-21T05:42:16.585Z,21.84
2022-09-21T05:44:43.228Z,21.84
2022-09-21T05:47:22.024Z,21.84
2022-09-21T05:49:51.361Z,21.83
2022-09-21T05:52:26.786Z,21.83
2022-09-21T05:55:12.617Z,21.82
2022-09-21T05:57:51.001Z,21.83
2022-09-21T06:00:23.673Z,21.82
2022-09-21T06:02:52.744Z,21.82
2022-09-21T06:05:19.361Z,21.82
2022-09-21T06:07:45.773Z,21.82
2022-09-21T06:10:12.794Z,21.82
2022-09-21T06:12:39.592Z,21.82
2022-09-21T06:15:07.017Z,21.81
2022-09-21T06:17:33.615Z,21.80
2022-09-21T06:19:59.977Z,21.81
2022-09-21T06:22:26.318Z,21.80
2022-09-21T06:24:52.700Z,21.79
2022-09-21T06:27:19.069Z,21.79
2022-09-21T06:29:45.427Z,21.78
2022-09-21T06:32:11.756Z,21.79
2022-09-21T06:34:38.171Z,21.80
2022-09-21T06:37:04.566Z,21.79
2022-09-21T06:39:31.151Z,21.79
2022-09-21T06:41:57.556Z,21.77
2022-09-21T06:44:23.963Z,21.77
2022-09-21T06:46:50.308Z,21.77
2022-09-21T06:49:16.691Z,21.77
2022-09-21T06:51:43.482Z,21.77
2022-09-21T06:54:11.430Z,21.77
2022-09-21T06:56:37.813Z,21.77
2022-09-21T06:59:04.180Z,21.77
2022-09-21T07:01:30.643Z,21.77
2022-09-21T07:03:57.057Z,21.78
2022-09-21T07:06:23.397Z,21.79
2022-09-21T07:11:41.473Z,21.80
2022-09-21T07:14:08.059Z,21.79
2022-09-21T07:16:34.976Z,21.80
2022-09-21T07:19:10.998Z,21.80
2022-09-21T07:21:38.059Z,21.81
2022-09-21T07:24:08.249Z,21.82
2022-09-21T07:26:37.537Z,21.82
2022-09-21T07:29:03.992Z,21.83
2022-09-21T07:31:30.508Z,21.84
2022-09-21T07:33:58.358Z,21.85
2022-09-21T07:36:24.764Z,21.86
2022-09-21T07:38:51.214Z,21.87
2022-09-21T07:41:17.695Z,21.86
2022-09-21T07:43:44.116Z,21.89
2022-09-21T07:46:11.639Z,21.90
2022-09-21T07:48:38.046Z,21.89
2022-09-21T07:51:06.185Z,21.91
2022-09-21T07:53:36.433Z,21.94
2022-09-21T07:56:04.271Z,21.93
2022-09-21T07:58:49.496Z,21.94
2022-09-21T08:01:16.007Z,21.96
2022-09-21T08:03:42.416Z,21.97
2022-09-21T08:06:09.366Z,21.97
2022-09-21T08:08:36.132Z,21.99
2022-09-21T08:11:04.044Z,22.00
2022-09-21T08:13:30.986Z,22.01
2022-09-21T08:16:01.233Z,22.01
2022-09-21T08:18:27.832Z,22.02
2022-09-21T08:20:55.582Z,22.03
2022-09-21T08:23:22.072Z,22.05
2022-09-21T08:25:48.694Z,22.06
2022-09-21T08:28:15.194Z,22.06
2022-09-21T08:30:42.112Z,22.09
2022-09-21T08:33:09.130Z,22.08
2022-09-21T08:35:36.397Z,22.10
2022-09-21T08:38:02.859Z,22.10
2022-09-21T08:40:29.401Z,22.10
2022-09-21T08:43:10.968Z,22.12
2022-09-21T08:45:42.245Z,22.15
2022-09-21T08:48:33.125Z,22.15
2022-09-21T08:51:05.772Z,22.16
2022-09-21T08:53:38.314Z,22.18
2022-09-21T08:56:04.890Z,22.18
2022-09-21T08:58:32.407Z,22.18
2022-09-21T09:01:12.769Z,22.20
2022-09-21T09:04:02.871Z,22.21
2022-09-21T09:06:41.135Z,22.23
2022-09-21T09:09:08.722Z,22.23
2022-09-21T09:11:54.066Z,22.25
2022-09-21T09:14:20.640Z,22.26
2022-09-21T09:16:58.373Z,22.27
2022-09-21T09:19:33.352Z,22.28
2022-09-21T09:22:02.479Z,22.29
2022-09-21T09:24:35.822Z,22.28
2022-09-21T09:27:02.149Z,22.29
2022-09-21T09:29:28.480Z,22.29
2022-09-21T09:31:55.932Z,22.29
2022-09-21T09:34:25.001Z,22.30
2022-09-21T09:36:58.858Z,22.31
2022-09-21T09:39:26.811Z,22.32
2022-09-21T09:41:56.144Z,22.32
2022-09-21T09:44:22.555Z,22.33
2022-09-21T09:47:08.191Z,22.34
2022-09-21T09:50:06.958Z,22.33
2022-09-21T09:52:33.460Z,22.33
2022-09-21T09:55:00.298Z,22.34
2022-09-21T09:57:31.161Z,22.33
2022-09-21T10:00:04.230Z,22.34
2022-09-21T10:02:31.325Z,22.36
2022-09-21T10:05:05.899Z,22.35
2022-09-21T10:07:36.263Z,22.35
2022-09-21T10:10:03.228Z,22.35
2022-09-21T10:12:30.652Z,22.36
2022-09-21T10:15:00.035Z,22.36
2022-09-21T10:17:26.962Z,22.36
2022-09-21T10:20:01.033Z,22.35
2022-09-21T10:22:28.311Z,22.36
2022-09-21T10:24:55.099Z,22.37
2022-09-21T10:27:28.644Z,22.36
2022-09-21T10:29:55.303Z,22.36
2022-09-21T10:32:23.071Z,22.37
2022-09-21T10:35:02.192Z,22.38
2022-09-21T10:37:37.559Z,22.36
2022-09-21T10:40:05.135Z,22.37
2022-09-21T10:42:36.595Z,22.37
2022-09-21T10:45:05.710Z,22.36
2022-09-21T10:47:44.457Z,22.37
2022-09-21T10:50:40.206Z,22.38
2022-09-21T10:53:09.677Z,22.38
2022-09-21T10:56:11.853Z,22.37
2022-09-21T10:59:01.418Z,22.38
2022-09-21T11:01:28.690Z,22.38
2022-09-21T11:04:00.782Z,22.39
2022-09-21T11:06:30.036Z,22.38
2022-09-21T11:08:56.388Z,22.37
2022-09-21T11:11:32.874Z,22.37
2022-09-21T11:14:03.735Z,22.38
2022-09-21T11:16:48.535Z,22.38
2022-09-21T11:19:21.985Z,22.38
2022-09-21T11:21:48.421Z,22.40
2022-09-21T11:24:28.512Z,22.39
2022-09-21T11:26:59.167Z,22.39
2022-09-21T11:29:33.271Z,22.41
2022-09-21T11:32:18.476Z,22.41
2022-09-21T11:35:00.191Z,22.40
2022-09-21T11:37:26.532Z,22.40
2022-09-21T11:39:59.171Z,22.39
2022-09-21T11:42:44.255Z,22.39
2022-09-21T11:45:32.172Z,22.40
2022-09-21T11:48:04.785Z,22.40
2022-09-21T11:50:46.016Z,22.40
2022-09-21T11:53:32.508Z,22.38
2022-09-21T11:56:08.864Z,22.40
2022-09-21T11:59:07.842Z,22.41
2022-09-21T12:01:50.110Z,22.39
2022-09-21T12:04:28.740Z,22.40
2022-09-21T12:06:55.095Z,22.40
2022-09-21T12:09:27.613Z,22.41
2022-09-21T12:12:03.272Z,22.40
2022-09-21T12:14:35.250Z,22.39
2022-09-21T12:17:10.787Z,22.38
2022-09-21T12:19:37.209Z,22.39
2022-09-21T12:22:12.028Z,22.38
2022-09-21T12:24:47.238Z,22.40
2022-09-21T12:27:19.849Z,22.39
2022-09-21T12:29:50.845Z,22.38
2022-09-21T12:32:17.245Z,22.40
2022-09-21T12:34:46.386Z,22.39
2022-09-21T12:37:20.728Z,22.40
2022-09-21T12:40:10.243Z,22.40
2022-09-21T12:42:41.854Z,22.41
2022-09-21T12:45:14.055Z,22.40
2022-09-21T12:47:46.575Z,22.40
2022-09-21T12:50:21.162Z,22.40
2022-09-21T12:52:48.238Z,22.39
2022-09-21T12:55:17.626Z,22.39
2022-09-21T12:58:17.813Z,22.41
2022-09-21T13:00:54.355Z,22.40
2022-09-21T13:03:37.470Z,22.39
2022-09-21T13:06:06.534Z,22.39
2022-09-21T13:08:36.751Z,22.40
2022-09-21T13:11:05.689Z,22.40
2022-09-21T13:13:38.327Z,22.40
2022-09-21T13:16:08.045Z,22.38
2022-09-21T13:18:36.918Z,22.40
2022-09-21T13:21:19.475Z,22.39
2022-09-21T13:24:06.130Z,22.38
2022-09-21T13:26:35.928Z,22.40
2022-09-21T13:29:25.145Z,22.40
2022-09-21T13:31:57.433Z,22.38
2022-09-21T13:34:28.325Z,22.40
2022-09-21T13:37:14.339Z,22.38
2022-09-21T13:40:00.217Z,22.38
2022-09-21T13:42:29.744Z,22.37
2022-09-21T13:45:00.388Z,22.37
2022-09-21T13:47:32.756Z,22.38
2022-09-21T13:50:01.181Z,22.38
2022-09-21T13:52:30.567Z,22.37
2022-09-21T13:55:01.611Z,22.37
2022-09-21T13:57:36.910Z,22.36
2022-09-21T14:00:09.104Z,22.36
2022-09-21T14:02:46.599Z,22.37
2022-09-21T14:05:19.404Z,22.36
2022-09-21T14:07:47.072Z,22.37
2022-09-21T14:10:18.769Z,22.36
2022-09-21T14:12:45.620Z,22.36
2022-09-21T14:15:18.586Z,22.35
2022-09-21T14:17:45.892Z,22.35
2022-09-21T14:20:39.538Z,22.36
2022-09-21T14:23:27.837Z,22.35
2022-09-21T14:25:56.489Z,22.34
2022-09-21T14:28:47.345Z,22.34
2022-09-21T14:31:33.095Z,22.33
2022-09-21T14:34:01.307Z,22.33
2022-09-21T14:36:38.323Z,22.33
2022-09-21T14:39:05.927Z,22.33
2022-09-21T14:41:37.938Z,22.34
2022-09-21T14:44:04.667Z,22.33
2022-09-21T14:46:40.526Z,22.33
2022-09-21T14:49:21.642Z,22.33
2022-09-21T14:52:04.358Z,22.31
2022-09-21T14:54:41.660Z,22.33
2022-09-21T14:57:19.626Z,22.32
2022-09-21T14:59:52.184Z,22.33
2022-09-21T15:02:21.170Z,22.32
2022-09-21T15:05:06.410Z,22.32
2022-09-21T15:07:56.043Z,22.31
2022-09-21T15:10:48.270Z,22.31
2022-09-21T15:13:22.641Z,22.30
2022-09-21T15:16:07.278Z,22.30
2022-09-21T15:18:39.675Z,22.31
2022-09-21T15:21:26.300Z,22.30
2022-09-21T15:23:53.176Z,22.31
2022-09-21T15:26:26.749Z,22.30
2022-09-21T15:29:10.936Z,22.30
2022-09-21T15:31:41.982Z,22.30
2022-09-21T15:34:10.801Z,22.31
2022-09-21T15:36:38.393Z,22.31
2022-09-21T15:39:05.491Z,22.30
2022-09-21T15:41:34.967Z,22.30
2022-09-21T15:44:27.417Z,22.30
2022-09-21T15:47:00.297Z,22.29
2022-09-21T15:49:29.603Z,22.29
2022-09-21T15:51:59.013Z,22.28
2022-09-21T15:54:34.443Z,22.28
2022-09-21T15:57:07.924Z,22.27
2022-09-21T15:59:34.756Z,22.29
2022-09-21T16:02:10.289Z,22.27
2022-09-21T16:04:39.345Z,22.28
2022-09-21T16:07:07.157Z,22.28
2022-09-21T16:09:45.022Z,22.27
2022-09-21T16:12:34.700Z,22.26
2022-09-21T16:15:05.503Z,22.26
2022-09-21T16:17:36.055Z,22.26
2022-09-21T16:20:17.338Z,22.25
2022-09-21T16:22:45.189Z,22.26
2022-09-21T16:25:16.038Z,22.25
2022-09-21T16:27:50.695Z,22.25
2022-09-21T16:30:35.911Z,22.25
2022-09-21T16:33:02.480Z,22.23
2022-09-21T16:35:31.329Z,22.24
2022-09-21T16:37:58.083Z,22.21
2022-09-21T16:40:28.593Z,22.21
2022-09-21T16:42:55.724Z,22.22
2022-09-21T16:45:28.399Z,22.23
2022-09-21T16:47:54.764Z,22.23
2022-09-21T16:50:21.260Z,22.23
2022-09-21T16:52:52.501Z,22.22
2022-09-21T16:55:19.382Z,22.21
2022-09-21T16:57:48.919Z,22.22
2022-09-21T17:00:20.189Z,22.24
2022-09-21T17:02:48.101Z,22.23
2022-09-21T17:05:18.070Z,22.22
2022-09-21T17:07:54.778Z,22.21
2022-09-21T17:10:22.939Z,22.22
2022-09-21T17:12:50.973Z,22.21
2022-09-21T17:15:17.550Z,22.20
2022-09-21T17:17:44.173Z,22.20
2022-09-21T17:20:23.406Z,22.20
2022-09-21T17:22:49.804Z,22.20
2022-09-21T17:25:16.169Z,22.18
2022-09-21T17:27:45.110Z,22.19
2022-09-21T17:30:13.130Z,22.18
2022-09-21T17:32:42.442Z,22.19
2022-09-21T17:35:17.370Z,22.19
2022-09-21T17:37:43.832Z,22.19
2022-09-21T17:40:11.226Z,22.17
2022-09-21T17:42:42.480Z,22.18
2022-09-21T17:45:12.893Z,22.18
2022-09-21T17:47:40.485Z,22.17
2022-09-21T17:50:12.775Z,22.17
2022-09-21T17:52:58.303Z,22.16
2022-09-21T17:55:25.188Z,22.16
2022-09-21T17:57:56.695Z,22.17
2022-09-21T18:00:24.208Z,22.17
2022-09-21T18:02:52.691Z,22.17
2022-09-21T18:05:29.529Z,22.16
2022-09-21T18:07:56.748Z,22.16
2022-09-21T18:10:25.702Z,22.16
2022-09-21T18:12:53.888Z,22.13
2022-09-21T18:15:39.104Z,22.15
2022-09-21T18:18:11.712Z,22.13
2022-09-21T18:20:47.787Z,22.14
2022-09-21T18:23:14.120Z,22.12
2022-09-21T18:35:42.285Z,22.11
2022-09-21T18:38:08.827Z,22.12
2022-09-21T18:40:53.594Z,22.09
2022-09-21T18:43:44.331Z,22.09
2022-09-21T18:46:14.830Z,22.08
2022-09-21T18:48:48.559Z,22.08
2022-09-21T18:51:23.271Z,22.08
2022-09-21T18:53:52.841Z,22.07
2022-09-21T18:56:19.474Z,22.06
2022-09-21T18:58:46.625Z,22.07
2022-09-21T19:01:13.501Z,22.07
2022-09-21T19:03:40.609Z,22.05
2022-09-21T19:06:09.881Z,22.05
2022-09-21T19:08:44.643Z,22.07
2022-09-21T19:11:16.292Z,22.07
2022-09-21T19:13:51.527Z,22.09
2022-09-21T19:16:30.136Z,22.09
2022-09-21T19:19:04.778Z,22.09
2022-09-21T19:21:38.470Z,22.09
2022-09-21T19:24:19.793Z,22.09
2022-09-21T19:26:49.363Z,22.10
2022-09-21T19:29:30.973Z,22.10
2022-09-21T19:31:57.390Z,22.09
2022-09-21T19:34:23.855Z,22.08
2022-09-21T19:36:51.186Z,22.09
2022-09-21T19:39:17.645Z,22.09
2022-09-21T19:41:50.069Z,22.08
2022-09-21T19:44:23.050Z,22.09
2022-09-21T19:47:29.250Z,22.08
2022-09-21T19:49:58.841Z,22.10
2022-09-21T19:52:34.328Z,22.10
2022-09-21T19:55:19.745Z,22.09
2022-09-21T19:58:05.290Z,22.08
2022-09-21T20:00:32.104Z,22.08
2022-09-21T20:03:03.306Z,22.08
2022-09-21T20:05:37.259Z,22.08
2022-09-21T20:08:10.785Z,22.08
2022-09-21T20:10:42.164Z,22.08
2022-09-21T20:13:31.828Z,22.08
2022-09-21T20:15:59.327Z,22.07
2022-09-21T20:18:25.893Z,22.07
2022-09-21T20:20:52.363Z,22.09
2022-09-21T20:23:18.936Z,22.07
2022-09-21T20:25:54.608Z,22.08
2022-09-21T20:28:21.919Z,22.07
2022-09-21T20:30:50.875Z,22.06
2022-09-21T20:33:22.638Z,22.06
2022-09-21T20:35:50.133Z,22.05
2022-09-21T20:38:17.885Z,22.04
2022-09-21T20:40:45.143Z,22.05
2022-09-21T20:43:14.096Z,22.05
2022-09-21T20:45:40.913Z,22.05
2022-09-21T20:48:17.789Z,22.05
2022-09-21T20:50:48.864Z,22.04
2022-09-21T20:53:15.537Z,22.03
2022-09-21T20:55:43.229Z,22.04
2022-09-21T20:58:12.878Z,22.04
2022-09-21T21:00:39.565Z,22.03
2022-09-21T21:03:06.040Z,22.04
2022-09-21T21:05:32.827Z,22.04
2022-09-21T21:07:59.230Z,22.05
2022-09-21T21:10:25.838Z,22.05
2022-09-21T21:12:52.198Z,22.05
2022-09-21T21:15:18.710Z,22.05
2022-09-21T21:17:46.857Z,22.05
2022-09-21T21:20:13.796Z,22.05
2022-09-21T21:22:40.252Z,22.01
2022-09-21T21:25:06.780Z,22.05
2022-09-21T21:27:33.190Z,22.05
2022-09-21T21:30:00.241Z,22.05
2022-09-21T21:32:27.171Z,22.05
2022-09-21T21:34:54.185Z,22.06
2022-09-21T21:37:21.550Z,22.05
2022-09-21T21:39:47.967Z,22.05
2022-09-21T21:42:14.714Z,22.04
2022-09-21T21:44:41.142Z,22.04
2022-09-21T21:47:27.857Z,22.04
2022-09-21T21:49:54.005Z,22.06
2022-09-21T21:52:20.515Z,22.06
2022-09-21T21:54:46.950Z,22.05
2022-09-21T21:57:14.862Z,22.06
2022-09-21T21:59:41.267Z,22.06
2022-09-21T22:02:08.698Z,22.06
2022-09-21T22:04:35.069Z,22.05
2022-09-21T22:07:01.977Z,22.06
2022-09-21T22:09:28.471Z,22.04
2022-09-21T22:11:54.870Z,22.04
2022-09-21T22:14:23.051Z,22.06
2022-09-21T22:16:51.332Z,22.04
2022-09-21T22:19:18.028Z,22.06
2022-09-21T22:21:53.153Z,22.05
2022-09-21T22:24:21.111Z,22.05
2022-09-21T22:26:48.637Z,22.04
2022-09-21T22:29:15.781Z,22.04
2022-09-21T22:31:43.351Z,22.05
2022-09-21T22:34:10.105Z,22.05
2022-09-21T22:36:37.350Z,22.05
2022-09-21T22:39:04.769Z,22.05
2022-09-21T22:41:34.010Z,22.07
2022-09-21T22:44:00.539Z,22.02
2022-09-21T22:46:27.722Z,22.00
2022-09-21T22:48:54.211Z,22.03
2022-09-21T22:51:21.293Z,22.04
2022-09-21T22:53:48.409Z,22.05
2022-09-21T22:56:19.331Z,22.05
2022-09-21T22:58:47.134Z,22.08
2022-09-21T23:01:19.529Z,22.02
2022-09-21T23:03:47.248Z,22.04
2022-09-21T23:06:14.729Z,22.06
2022-09-21T23:08:41.731Z,22.05
2022-09-21T23:11:10.019Z,22.05
2022-09-21T23:13:36.406Z,22.04
2022-09-21T23:16:04.017Z,22.03
2022-09-21T23:18:31.226Z,22.05
2022-09-21T23:20:58.296Z,22.07
2022-09-21T23:23:25.015Z,22.07
2022-09-21T23:26:00.200Z,22.07
2022-09-21T23:28:26.524Z,22.09
2022-09-21T23:30:55.169Z,22.09
2022-09-21T23:33:21.672Z,22.09
2022-09-21T23:35:50.162Z,22.09
2022-09-21T23:38:16.547Z,22.07
2022-09-21T23:40:42.934Z,22.06
2022-09-21T23:43:09.495Z,22.09
2022-09-21T23:45:35.814Z,22.09
2022-09-21T23:48:02.244Z,22.10
2022-09-21T23:50:28.605Z,22.10
2022-09-21T23:52:54.925Z,22.08
2022-09-21T23:55:21.311Z,22.08
2022-09-21T23:57:47.629Z,22.08
